createdAt,value
2022-11-22T00:02:27.366Z,52.47
2022-11-22T00:04:55.512Z,71.10
2022-11-22T00:07:25.302Z,54.50
2022-11-22T00:09:53.366Z,50.27
2022-11-22T00:12:21.771Z,56.27
2022-11-22T00:14:55.448Z,51.97
2022-11-22T00:17:25.099Z,67.17
2022-11-22T00:19:53.137Z,52.43
2022-11-22T00:22:21.452Z,61.93
2022-11-22T00:24:52.603Z,44.50
2022-11-22T00:27:21.588Z,50.33
2022-11-22T00:29:49.718Z,51.17
2022-11-22T00:32:18.089Z,53.03
2022-11-22T00:34:46.240Z,48.13
2022-11-22T00:37:14.559Z,60.67
2022-11-22T00:39:42.769Z,41.07
2022-11-22T00:42:12.384Z,46.20
2022-11-22T00:44:40.467Z,55.47
2022-11-22T00:47:08.746Z,40.57
2022-11-22T00:49:36.786Z,61.53
2022-11-22T00:52:05.237Z,47.23
2022-11-22T00:54:33.259Z,50.10
2022-11-22T00:57:01.516Z,55.97
2022-11-22T00:59:31.061Z,44.80
2022-11-22T01:01:59.632Z,45.30
2022-11-22T01:04:27.861Z,48.13
2022-11-22T01:06:56.408Z,51.30
2022-11-22T01:09:25.088Z,49.80
2022-11-22T01:11:53.544Z,47.17
2022-11-22T01:14:21.720Z,49.60
2022-11-22T01:16:51.337Z,48.23
2022-11-22T01:19:19.383Z,60.87
2022-11-22T01:21:47.823Z,52.67
2022-11-22T01:24:15.894Z,47.50
2022-11-22T01:26:44.152Z,49.13
2022-11-22T01:29:12.207Z,51.80
2022-11-22T01:31:40.534Z,40.80
2022-11-22T01:34:09.834Z,41.00
2022-11-22T01:36:38.234Z,44.80
2022-11-22T01:39:06.280Z,42.80
2022-11-22T01:41:34.790Z,52.03
2022-11-22T01:44:18.567Z,42.50
2022-11-22T01:46:48.456Z,48.80
2022-11-22T01:49:25.851Z,45.13
2022-11-22T01:51:56.875Z,46.17
2022-11-22T01:54:28.123Z,54.83
2022-11-22T01:57:01.997Z,51.17
2022-11-22T01:59:33.517Z,52.13
2022-11-22T02:02:02.560Z,55.60
2022-11-22T02:04:35.512Z,55.40
2022-11-22T02:07:11.059Z,47.87
2022-11-22T02:09:40.259Z,43.70
2022-11-22T02:12:10.843Z,48.20
2022-11-22T02:14:40.627Z,52.97
2022-11-22T02:17:09.068Z,66.00
2022-11-22T02:19:43.460Z,47.80
2022-11-22T02:22:23.599Z,55.70
2022-11-22T02:24:56.516Z,55.40
2022-11-22T02:27:26.593Z,62.20
2022-11-22T02:29:54.646Z,56.40
2022-11-22T02:32:23.160Z,51.73
2022-11-22T02:34:52.213Z,57.13
2022-11-22T02:37:25.298Z,60.53
2022-11-22T02:39:59.306Z,52.70
2022-11-22T02:42:31.770Z,49.13
2022-11-22T02:44:59.801Z,61.60
2022-11-22T02:47:28.048Z,71.40
2022-11-22T02:49:56.040Z,56.47
2022-11-22T02:52:24.386Z,65.97
2022-11-22T02:54:52.391Z,64.83
2022-11-22T02:57:21.059Z,69.37
2022-11-22T02:59:50.417Z,60.60
2022-11-22T03:02:18.753Z,67.07
2022-11-22T03:04:47.497Z,75.57
2022-11-22T03:07:17.303Z,61.97
2022-11-22T03:09:45.401Z,52.73
2022-11-22T03:12:13.692Z,63.77
2022-11-22T03:14:42.794Z,58.47
2022-11-22T03:17:14.223Z,56.37
2022-11-22T03:19:42.278Z,58.13
2022-11-22T03:22:11.721Z,54.23
2022-11-22T03:24:39.983Z,54.10
2022-11-22T03:27:08.312Z,68.77
2022-11-22T03:29:36.305Z,70.40
2022-11-22T03:32:04.631Z,58.10
2022-11-22T03:34:34.251Z,61.60
2022-11-22T03:37:02.643Z,64.23
2022-11-22T03:39:30.764Z,58.50
2022-11-22T03:41:59.280Z,61.27
2022-11-22T03:44:27.307Z,60.17
2022-11-22T03:46:55.607Z,54.43
2022-11-22T03:49:23.606Z,61.50
2022-11-22T03:51:53.256Z,54.33
2022-11-22T03:54:21.300Z,65.93
2022-11-22T03:56:49.815Z,78.40
2022-11-22T03:59:17.809Z,57.70
2022-11-22T04:01:46.264Z,60.90
2022-11-22T04:04:14.609Z,59.43
2022-11-22T04:06:42.867Z,56.27
2022-11-22T04:09:12.670Z,59.67
2022-11-22T04:11:41.054Z,57.27
2022-11-22T04:14:29.447Z,58.70
2022-11-22T04:16:58.191Z,69.50
2022-11-22T04:19:26.232Z,61.20
2022-11-22T04:21:53.601Z,64.13
2022-11-22T04:24:40.860Z,55.80
2022-11-22T04:27:09.533Z,58.40
2022-11-22T04:29:37.509Z,64.97
2022-11-22T04:32:23.558Z,66.90
2022-11-22T04:34:51.709Z,48.03
2022-11-22T04:37:20.004Z,66.87
2022-11-22T04:39:49.336Z,51.90
2022-11-22T04:42:35.125Z,57.37
2022-11-22T04:45:03.224Z,59.93
2022-11-22T04:47:50.557Z,52.00
2022-11-22T04:50:36.143Z,60.30
2022-11-22T04:53:04.690Z,47.10
2022-11-22T04:55:34.224Z,50.40
2022-11-22T04:58:02.589Z,53.03
2022-11-22T05:00:30.879Z,58.27
2022-11-22T05:03:00.024Z,56.47
2022-11-22T05:05:28.734Z,53.90
2022-11-22T05:07:58.828Z,54.27
2022-11-22T05:10:27.469Z,60.97
2022-11-22T05:12:57.641Z,49.43
2022-11-22T05:15:25.707Z,63.10
2022-11-22T05:17:54.000Z,51.03
2022-11-22T05:20:22.149Z,46.63
2022-11-22T05:23:13.432Z,60.23
2022-11-22T05:25:42.409Z,52.80
2022-11-22T05:28:11.999Z,55.17
2022-11-22T05:30:40.031Z,46.03
2022-11-22T05:33:08.325Z,57.73
2022-11-22T05:35:36.409Z,58.10
2022-11-22T05:38:04.950Z,55.17
2022-11-22T05:40:32.989Z,55.90
2022-11-22T05:43:01.280Z,58.97
2022-11-22T05:45:30.641Z,62.20
2022-11-22T05:47:58.931Z,52.97
2022-11-22T05:50:27.049Z,61.97
2022-11-22T05:53:02.065Z,55.50
2022-11-22T05:55:30.467Z,47.20
2022-11-22T05:58:00.747Z,67.73
2022-11-22T06:00:30.902Z,49.00
2022-11-22T06:03:02.784Z,56.40
2022-11-22T06:05:30.955Z,57.50
2022-11-22T06:08:01.403Z,60.57
2022-11-22T06:10:30.141Z,57.27
2022-11-22T06:12:58.472Z,59.17
2022-11-22T06:15:26.571Z,56.23
2022-11-22T06:17:56.411Z,62.03
2022-11-22T06:20:24.587Z,48.27
2022-11-22T06:22:53.028Z,54.83
2022-11-22T06:25:21.039Z,54.10
2022-11-22T06:27:49.663Z,67.13
2022-11-22T06:30:17.995Z,63.43
2022-11-22T06:32:46.466Z,64.07
2022-11-22T06:35:15.850Z,68.80
2022-11-22T06:37:44.231Z,57.03
2022-11-22T06:40:13.128Z,62.87
2022-11-22T06:42:41.410Z,72.97
2022-11-22T06:45:10.491Z,57.80
2022-11-22T06:47:38.830Z,57.37
2022-11-22T06:50:07.651Z,63.57
2022-11-22T06:52:37.531Z,55.20
2022-11-22T06:55:08.060Z,67.63
2022-11-22T06:57:36.956Z,59.00
2022-11-22T07:00:05.856Z,62.73
2022-11-22T07:02:34.196Z,57.57
2022-11-22T07:05:24.422Z,67.13
2022-11-22T07:07:51.933Z,82.10
2022-11-22T07:10:20.006Z,76.03
2022-11-22T07:12:48.337Z,63.60
2022-11-22T07:15:16.446Z,66.60
2022-11-22T07:17:44.759Z,61.33
2022-11-22T07:20:12.946Z,68.83
2022-11-22T07:22:41.310Z,77.47
2022-11-22T07:25:11.763Z,94.40
2022-11-22T07:27:40.023Z,78.80
2022-11-22T07:30:09.539Z,73.03
2022-11-22T07:32:37.868Z,82.20
2022-11-22T07:35:06.669Z,68.03
2022-11-22T07:37:34.967Z,75.70
2022-11-22T07:40:03.153Z,68.70
2022-11-22T07:42:33.010Z,62.60
2022-11-22T07:45:01.036Z,69.70
2022-11-22T07:47:29.296Z,60.73
2022-11-22T07:49:57.376Z,72.87
2022-11-22T07:52:25.652Z,72.57
2022-11-22T07:54:53.710Z,75.93
2022-11-22T07:57:22.030Z,63.70
2022-11-22T07:59:51.368Z,69.13
2022-11-22T08:02:19.764Z,64.50
2022-11-22T08:04:48.114Z,71.47
2022-11-22T08:07:16.523Z,60.57
2022-11-22T08:09:44.801Z,54.43
2022-11-22T08:12:13.065Z,54.43
2022-11-22T08:14:41.092Z,48.20
2022-11-22T08:17:10.698Z,51.87
2022-11-22T08:19:39.179Z,58.83
2022-11-22T08:22:07.573Z,57.13
2022-11-22T08:24:35.588Z,54.37
2022-11-22T08:27:03.883Z,61.63
2022-11-22T08:29:32.327Z,52.10
2022-11-22T08:32:00.686Z,49.17
2022-11-22T08:34:30.388Z,45.47
2022-11-22T08:36:58.790Z,57.83
2022-11-22T08:39:26.954Z,54.63
2022-11-22T08:41:55.481Z,54.80
2022-11-22T08:44:23.472Z,51.47
2022-11-22T08:46:52.032Z,54.97
2022-11-22T08:49:20.276Z,60.90
2022-11-22T08:51:49.954Z,63.80
2022-11-22T08:54:17.995Z,58.33
2022-11-22T08:56:46.376Z,52.63
2022-11-22T08:59:14.649Z,55.53
2022-11-22T09:01:42.995Z,62.83
2022-11-22T09:04:11.237Z,61.67
2022-11-22T09:09:37.371Z,41.03
2022-11-22T09:12:07.316Z,53.47
2022-11-22T09:14:35.455Z,57.93
2022-11-22T09:17:05.755Z,39.97
2022-11-22T09:19:33.900Z,54.40
2022-11-22T09:22:02.368Z,52.93
2022-11-22T09:24:31.726Z,57.43
2022-11-22T09:27:00.239Z,58.77
2022-11-22T09:29:28.503Z,47.17
2022-11-22T09:31:57.238Z,51.17
2022-11-22T09:34:25.347Z,55.20
2022-11-22T09:36:53.693Z,46.73
2022-11-22T09:39:21.732Z,59.27
2022-11-22T09:42:10.443Z,57.30
2022-11-22T09:45:02.769Z,54.30
2022-11-22T09:47:40.408Z,52.87
2022-11-22T09:50:17.008Z,52.93
2022-11-22T09:52:50.346Z,51.23
2022-11-22T09:55:24.674Z,54.10
2022-11-22T09:58:03.365Z,53.40
2022-11-22T10:00:31.627Z,62.40
2022-11-22T10:03:06.326Z,52.23
2022-11-22T10:05:44.069Z,70.80
2022-11-22T10:08:30.838Z,70.53
2022-11-22T10:11:00.828Z,75.93
2022-11-22T10:13:36.496Z,64.27
2022-11-22T10:16:11.961Z,59.73
2022-11-22T10:18:44.449Z,64.83
2022-11-22T10:21:14.091Z,60.83
2022-11-22T10:23:44.044Z,58.60
2022-11-22T10:26:22.526Z,46.53
2022-11-22T10:29:04.573Z,48.03
2022-11-22T10:31:41.007Z,52.97
2022-11-22T10:34:17.874Z,50.40
2022-11-22T10:36:51.006Z,60.27
2022-11-22T10:39:41.766Z,45.67
2022-11-22T10:42:24.936Z,51.53
2022-11-22T10:45:04.427Z,44.23
2022-11-22T10:47:47.009Z,50.13
2022-11-22T10:50:23.255Z,50.10
2022-11-22T10:52:59.500Z,55.30
2022-11-22T10:55:46.811Z,44.77
2022-11-22T10:58:22.372Z,52.83
2022-11-22T11:00:59.253Z,44.60
2022-11-22T11:03:31.286Z,54.23
2022-11-22T11:06:22.634Z,43.57
2022-11-22T11:11:48.232Z,51.37
2022-11-22T11:14:27.582Z,50.27
2022-11-22T11:16:58.739Z,60.53
2022-11-22T11:19:30.276Z,67.93
2022-11-22T11:22:26.110Z,69.80
2022-11-22T11:25:30.263Z,66.63
2022-11-22T11:28:01.936Z,50.33
2022-11-22T11:30:37.786Z,60.43
2022-11-22T11:33:26.343Z,59.30
2022-11-22T11:35:58.170Z,58.43
2022-11-22T11:38:31.966Z,67.20
2022-11-22T11:41:17.680Z,55.47
2022-11-22T11:43:47.029Z,52.40
2022-11-22T11:46:19.149Z,73.33
2022-11-22T11:48:49.794Z,70.67
2022-11-22T11:51:26.120Z,76.40
2022-11-22T11:53:59.864Z,61.10
2022-11-22T11:56:40.495Z,72.03
2022-11-22T11:59:14.427Z,62.67
2022-11-22T12:01:49.977Z,59.33
2022-11-22T12:04:24.213Z,70.27
2022-11-22T12:07:03.791Z,57.50
2022-11-22T12:09:35.748Z,56.47
2022-11-22T12:12:12.980Z,68.33
2022-11-22T12:15:09.760Z,53.17
2022-11-22T12:17:39.960Z,74.10
2022-11-22T12:20:15.765Z,61.30
2022-11-22T12:22:52.203Z,56.10
2022-11-22T12:25:33.167Z,62.57
2022-11-22T12:28:11.489Z,63.97
2022-11-22T12:30:42.789Z,61.27
2022-11-22T12:33:18.609Z,62.70
2022-11-22T12:35:50.670Z,66.27
2022-11-22T12:38:23.812Z,66.37
2022-11-22T12:40:55.314Z,64.37
2022-11-22T12:43:27.585Z,72.20
2022-11-22T12:45:59.061Z,70.43
2022-11-22T12:48:33.552Z,67.63
2022-11-22T12:51:09.831Z,63.77
2022-11-22T12:53:42.562Z,67.13
2022-11-22T12:56:22.373Z,77.50
2022-11-22T12:58:56.000Z,76.43
2022-11-22T13:01:29.971Z,55.97
2022-11-22T13:04:03.274Z,68.63
2022-11-22T13:06:42.238Z,60.67
2022-11-22T13:09:15.187Z,71.93
2022-11-22T13:11:49.623Z,62.97
2022-11-22T13:14:22.501Z,59.17
2022-11-22T13:16:51.590Z,61.60
2022-11-22T13:19:23.917Z,57.33
2022-11-22T13:22:07.807Z,69.87
2022-11-22T13:24:46.650Z,66.47
2022-11-22T13:27:20.651Z,70.80
2022-11-22T13:29:50.808Z,61.20
2022-11-22T13:32:23.496Z,69.50
2022-11-22T13:35:08.098Z,71.57
2022-11-22T13:37:40.038Z,70.43
2022-11-22T13:40:23.166Z,79.00
2022-11-22T13:43:25.264Z,64.63
2022-11-22T13:45:54.573Z,68.30
2022-11-22T13:48:56.380Z,71.47
2022-11-22T13:51:55.732Z,65.57
2022-11-22T13:55:01.017Z,68.83
2022-11-22T13:57:33.892Z,61.13
2022-11-22T14:00:40.390Z,59.70
2022-11-22T14:03:37.534Z,59.63
2022-11-22T14:06:33.097Z,68.60
2022-11-22T14:09:26.553Z,59.53
2022-11-22T14:12:09.927Z,61.43
2022-11-22T14:14:44.721Z,59.33
2022-11-22T14:17:20.598Z,61.47
2022-11-22T14:20:03.532Z,62.37
2022-11-22T14:22:47.222Z,66.47
2022-11-22T14:25:42.207Z,59.83
2022-11-22T14:28:30.328Z,67.40
2022-11-22T14:30:59.130Z,64.87
2022-11-22T14:33:29.441Z,57.57
2022-11-22T14:36:17.352Z,64.13
2022-11-22T14:38:47.025Z,59.63
2022-11-22T14:41:42.839Z,61.70
2022-11-22T14:44:17.462Z,54.83
2022-11-22T14:46:53.719Z,70.27
2022-11-22T14:49:31.581Z,70.23
2022-11-22T14:52:01.094Z,78.17
2022-11-22T14:54:34.715Z,64.87
2022-11-22T14:57:07.383Z,73.47
2022-11-22T15:00:06.471Z,73.03
2022-11-22T15:03:05.196Z,66.00
2022-11-22T15:09:11.675Z,69.83
2022-11-22T15:09:16.122Z,72.83
2022-11-22T15:12:04.052Z,73.40
2022-11-22T15:58:13.347Z,62.97
2022-11-22T16:00:45.023Z,74.93
2022-11-22T16:03:23.603Z,63.90
2022-11-22T16:06:05.761Z,77.53
2022-11-22T16:08:49.101Z,70.63
2022-11-22T16:11:22.045Z,69.63
2022-11-22T16:13:50.403Z,61.70
2022-11-22T16:16:20.934Z,73.83
2022-11-22T16:18:50.745Z,72.37
2022-11-22T16:21:28.936Z,69.00
2022-11-22T16:24:15.928Z,69.77
2022-11-22T16:26:54.052Z,68.90
2022-11-22T16:29:32.127Z,74.37
2022-11-22T16:32:02.625Z,70.73
2022-11-22T16:34:31.409Z,71.00
2022-11-22T16:36:59.912Z,71.83
2022-11-22T16:39:30.809Z,83.67
2022-11-22T16:41:59.493Z,78.77
2022-11-22T16:44:28.248Z,68.47
2022-11-22T16:46:56.375Z,76.13
2022-11-22T16:49:24.688Z,81.97
2022-11-22T16:51:52.989Z,74.00
2022-11-22T16:54:23.823Z,80.33
2022-11-22T16:56:53.424Z,74.63
2022-11-22T16:59:21.888Z,62.27
2022-11-22T17:01:50.459Z,76.80
2022-11-22T17:04:23.406Z,82.37
2022-11-22T17:06:52.259Z,66.70
2022-11-22T17:09:21.358Z,69.47
2022-11-22T17:11:50.330Z,69.03
2022-11-22T17:14:20.730Z,74.40
2022-11-22T17:16:48.845Z,75.80
2022-11-22T17:19:51.711Z,69.77
2022-11-22T17:22:06.987Z,82.73
2022-11-22T17:24:35.771Z,77.63
2022-11-22T17:27:03.866Z,85.03
2022-11-22T17:32:21.680Z,77.37
2022-11-22T17:34:49.985Z,80.20
2022-11-22T17:37:18.126Z,79.40
2022-11-22T17:39:46.812Z,73.07
2022-11-22T17:42:17.232Z,81.13
2022-11-22T17:44:47.226Z,85.50
2022-11-22T17:47:15.246Z,85.67
2022-11-22T17:49:43.722Z,82.17
2022-11-22T17:52:11.800Z,86.87
2022-11-22T17:54:40.096Z,83.07
2022-11-22T17:57:08.286Z,77.43
2022-11-22T17:59:36.657Z,80.77
2022-11-22T18:02:06.148Z,77.90
2022-11-22T18:04:34.687Z,90.07
2022-11-22T18:07:02.959Z,84.43
2022-11-22T18:09:31.803Z,72.93
2022-11-22T18:12:00.089Z,82.90
2022-11-22T18:14:30.525Z,84.20
2022-11-22T18:17:00.330Z,88.97
2022-11-22T18:19:30.330Z,83.37
2022-11-22T18:21:58.547Z,79.77
2022-11-22T18:24:27.008Z,81.60
2022-11-22T18:26:55.212Z,75.87
2022-11-22T18:29:42.618Z,71.73
2022-11-22T18:32:12.697Z,71.13
2022-11-22T18:34:42.612Z,69.67
2022-11-22T18:37:11.024Z,78.37
2022-11-22T18:39:40.431Z,78.30
2022-11-22T18:42:11.445Z,80.17
2022-11-22T18:44:40.004Z,72.70
2022-11-22T18:47:08.818Z,74.60
2022-11-22T18:49:37.479Z,81.23
2022-11-22T18:52:08.780Z,71.70
2022-11-22T18:54:39.260Z,77.80
2022-11-22T18:57:07.355Z,75.07
2022-11-22T18:59:35.737Z,78.07
2022-11-22T19:02:03.857Z,92.53
2022-11-22T19:04:32.670Z,80.57
2022-11-22T19:07:01.151Z,71.50
2022-11-22T19:09:30.902Z,77.47
2022-11-22T19:11:59.089Z,73.07
2022-11-22T19:14:29.780Z,65.50
2022-11-22T19:16:58.282Z,78.53
2022-11-22T19:19:26.796Z,57.27
2022-11-22T19:21:55.098Z,63.03
2022-11-22T19:24:23.759Z,70.07
2022-11-22T19:26:53.406Z,65.67
2022-11-22T19:29:22.487Z,66.40
2022-11-22T19:31:50.817Z,68.33
2022-11-22T19:34:20.562Z,60.97
2022-11-22T19:36:48.714Z,61.40
2022-11-22T19:39:17.293Z,66.57
2022-11-22T19:41:46.149Z,77.53
2022-11-22T19:44:15.957Z,64.10
2022-11-22T19:46:44.252Z,71.17
2022-11-22T19:49:13.142Z,70.73
2022-11-22T19:51:41.232Z,68.43
2022-11-22T19:54:09.880Z,59.40
2022-11-22T19:56:39.526Z,60.37
2022-11-22T19:59:10.392Z,61.03
2022-11-22T20:01:40.173Z,63.57
2022-11-22T20:04:09.662Z,77.17
2022-11-22T20:06:37.943Z,59.00
2022-11-22T20:09:09.291Z,63.83
2022-11-22T20:11:38.374Z,67.23
2022-11-22T20:14:07.710Z,72.00
2022-11-22T20:16:36.139Z,64.27
2022-11-22T20:19:09.681Z,71.07
2022-11-22T20:21:39.131Z,60.93
2022-11-22T20:24:08.449Z,71.57
2022-11-22T20:26:37.179Z,65.20
2022-11-22T20:29:07.844Z,77.60
2022-11-22T20:31:39.770Z,65.60
2022-11-22T20:34:15.100Z,65.37
2022-11-22T20:36:43.502Z,62.30
2022-11-22T20:39:27.522Z,70.80
2022-11-22T20:42:18.565Z,62.90
2022-11-22T20:44:45.844Z,63.13
2022-11-22T20:47:15.080Z,68.40
2022-11-22T20:49:45.813Z,68.03
2022-11-22T20:52:14.254Z,76.00
2022-11-22T20:54:42.797Z,70.97
2022-11-22T20:57:10.873Z,67.20
2022-11-22T20:59:39.568Z,73.57
2022-11-22T21:02:09.429Z,64.63
2022-11-22T21:04:38.114Z,68.37
2022-11-22T21:07:07.727Z,63.33
2022-11-22T21:09:36.365Z,71.50
2022-11-22T21:12:05.040Z,72.67
2022-11-22T21:14:33.999Z,61.67
2022-11-22T21:17:22.618Z,64.60
2022-11-22T21:19:50.553Z,71.43
2022-11-22T21:22:19.995Z,68.67
2022-11-22T21:24:48.385Z,62.60
2022-11-22T21:27:16.476Z,61.17
2022-11-22T21:29:44.877Z,69.30
2022-11-22T21:32:13.271Z,62.97
2022-11-22T21:34:41.712Z,61.83
2022-11-22T21:37:09.843Z,64.60
2022-11-22T21:39:39.703Z,63.93
2022-11-22T21:42:08.101Z,57.53
2022-11-22T21:44:36.459Z,65.60
2022-11-22T21:47:04.704Z,66.47
2022-11-22T21:49:33.126Z,56.10
2022-11-22T21:52:01.393Z,72.57
2022-11-22T21:54:30.026Z,74.33
2022-11-22T21:57:02.786Z,63.03
2022-11-22T21:59:32.423Z,60.93
2022-11-22T22:02:00.969Z,74.17
2022-11-22T22:04:29.348Z,61.30
2022-11-22T22:06:57.479Z,64.73
2022-11-22T22:09:25.804Z,66.33
2022-11-22T22:11:53.895Z,66.70
2022-11-22T22:14:23.748Z,63.93
2022-11-22T22:16:51.899Z,72.47
2022-11-22T22:19:20.784Z,71.40
2022-11-22T22:21:48.912Z,66.70
2022-11-22T22:24:17.436Z,67.27
2022-11-22T22:26:45.544Z,73.33
2022-11-22T22:29:14.110Z,72.67
2022-11-22T22:31:43.541Z,67.37
2022-11-22T22:34:11.995Z,72.53
2022-11-22T22:36:40.060Z,66.83
2022-11-22T22:39:08.575Z,72.07
2022-11-22T22:41:36.677Z,74.10
2022-11-22T22:44:05.233Z,64.80
2022-11-22T22:46:33.458Z,72.73
2022-11-22T22:49:03.096Z,72.00
2022-11-22T22:51:33.109Z,77.20
2022-11-22T22:54:02.661Z,64.50
2022-11-22T22:56:31.874Z,67.50
2022-11-22T22:59:01.506Z,73.97
2022-11-22T23:01:31.790Z,68.27
2022-11-22T23:04:03.225Z,71.67
2022-11-22T23:06:33.564Z,73.63
2022-11-22T23:09:02.412Z,69.53
2022-11-22T23:11:52.493Z,71.57
2022-11-22T23:14:22.747Z,64.10
2022-11-22T23:16:55.940Z,59.13
2022-11-22T23:19:27.897Z,74.37
2022-11-22T23:21:56.327Z,71.53
2022-11-22T23:24:25.069Z,70.80
2022-11-22T23:26:53.355Z,76.40
2022-11-22T23:29:21.782Z,66.20
2022-11-22T23:31:49.913Z,69.80
2022-11-22T23:34:18.341Z,70.37
2022-11-22T23:36:47.749Z,74.93
2022-11-22T23:39:16.177Z,67.20
2022-11-22T23:41:45.014Z,77.67
2022-11-22T23:44:13.334Z,66.37
2022-11-22T23:46:41.359Z,70.50
2022-11-22T23:49:12.105Z,72.90
2022-11-22T23:51:40.172Z,69.30
2022-11-22T23:54:11.716Z,71.40
2022-11-22T23:56:39.880Z,78.47
2022-11-22T23:59:08.487Z,67.70
